sensor_id;sensor_type;location;lat;lon;timestamp;pressure;altitude;pressure_sealevel;temperature;humidity
31538;BME280;18147;51.952;6.146;2023-05-06T00:01:19;101569.41;;;12.04;100.00
31538;BME280;18147;51.952;6.146;2023-05-06T00:03:45;101574.25;;;11.97;100.00
31538;BME280;18147;51.952;6.146;2023-05-06T00:06:10;101566.47;;;12.08;100.00
31538;BME280;18147;51.952;6.146;2023-05-06T00:08:36;101578.22;;;12.06;100.00
31538;BME280;18147;51.952;6.146;2023-05-06T00:11:02;101576.84;;;11.99;100.00
31538;BME280;18147;51.952;6.146;2023-05-06T00:13:27;101579.09;;;11.75;100.00
31538;BME280;18147;51.952;6.146;2023-05-06T00:15:56;101575.63;;;11.73;100.00
31538;BME280;18147;51.952;6.146;2023-05-06T00:18:21;101581.22;;;11.68;100.00
31538;BME280;18147;51.952;6.146;2023-05-06T00:20:49;101575.38;;;11.61;100.00
31538;BME280;18147;51.952;6.146;2023-05-06T00:23:15;101572.19;;;11.55;100.00
31538;BME280;18147;51.952;6.146;2023-05-06T00:25:40;101566.56;;;11.59;100.00
31538;BME280;18147;51.952;6.146;2023-05-06T00:28:12;101568.03;;;11.65;100.00
31538;BME280;18147;51.952;6.146;2023-05-06T00:30:38;101564.59;;;11.63;100.00
31538;BME280;18147;51.952;6.146;2023-05-06T00:33:07;101570.88;;;11.62;100.00
31538;BME280;18147;51.952;6.146;2023-05-06T00:35:32;101572.34;;;11.67;100.00
31538;BME280;18147;51.952;6.146;2023-05-06T00:38:09;101566.56;;;11.75;100.00
31538;BME280;18147;51.952;6.146;2023-05-06T00:40:38;101568.56;;;11.72;100.00
31538;BME280;18147;51.952;6.146;2023-05-06T00:43:05;101563.31;;;11.86;100.00
31538;BME280;18147;51.952;6.146;2023-05-06T00:45:31;101571.25;;;11.87;100.00
31538;BME280;18147;51.952;6.146;2023-05-06T00:47:57;101571.25;;;11.87;100.00
31538;BME280;18147;51.952;6.146;2023-05-06T00:50:24;101576.44;;;11.90;100.00
31538;BME280;18147;51.952;6.146;2023-05-06T00:52:53;101573.75;;;11.90;100.00
31538;BME280;18147;51.952;6.146;2023-05-06T00:55:21;101576.66;;;12.02;100.00
31538;BME280;18147;51.952;6.146;2023-05-06T00:57:46;101568.53;;;12.03;100.00
31538;BME280;18147;51.952;6.146;2023-05-06T01:00:19;101571.75;;;12.10;100.00
31538;BME280;18147;51.952;6.146;2023-05-06T01:02:46;101568.19;;;12.09;100.00
31538;BME280;18147;51.952;6.146;2023-05-06T01:05:11;101561.66;;;12.15;100.00
31538;BME280;18147;51.952;6.146;2023-05-06T01:08:03;101559.84;;;12.15;100.00
31538;BME280;18147;51.952;6.146;2023-05-06T01:10:41;101561.94;;;12.25;100.00
31538;BME280;18147;51.952;6.146;2023-05-06T01:13:28;101565.13;;;12.31;100.00
31538;BME280;18147;51.952;6.146;2023-05-06T01:15:58;101557.13;;;12.31;100.00
31538;BME280;18147;51.952;6.146;2023-05-06T01:18:30;101554.47;;;12.15;100.00
31538;BME280;18147;51.952;6.146;2023-05-06T01:20:58;101556.78;;;12.22;100.00
31538;BME280;18147;51.952;6.146;2023-05-06T01:23:25;101560.31;;;12.22;100.00
31538;BME280;18147;51.952;6.146;2023-05-06T01:25:51;101560.69;;;12.16;100.00
31538;BME280;18147;51.952;6.146;2023-05-06T01:28:17;101558.69;;;12.19;100.00
31538;BME280;18147;51.952;6.146;2023-05-06T01:31:02;101559.47;;;12.22;100.00
31538;BME280;18147;51.952;6.146;2023-05-06T01:38:54;101560.06;;;12.27;100.00
31538;BME280;18147;51.952;6.146;2023-05-06T01:41:24;101556.41;;;12.28;100.00
31538;BME280;18147;51.952;6.146;2023-05-06T01:43:51;101555.47;;;12.29;100.00
31538;BME280;18147;51.952;6.146;2023-05-06T01:46:18;101548.78;;;12.22;100.00
31538;BME280;18147;51.952;6.146;2023-05-06T01:48:45;101553.03;;;12.10;100.00
31538;BME280;18147;51.952;6.146;2023-05-06T01:51:14;101551.66;;;12.03;100.00
31538;BME280;18147;51.952;6.146;2023-05-06T01:53:40;101565.66;;;12.22;100.00
31538;BME280;18147;51.952;6.146;2023-05-06T01:56:06;101559.94;;;12.28;100.00
31538;BME280;18147;51.952;6.146;2023-05-06T01:58:31;101549.47;;;12.39;100.00
31538;BME280;18147;51.952;6.146;2023-05-06T02:00:57;101553.44;;;12.48;100.00
31538;BME280;18147;51.952;6.146;2023-05-06T02:03:23;101549.78;;;12.49;100.00
31538;BME280;18147;51.952;6.146;2023-05-06T02:05:49;101546.63;;;12.42;100.00
31538;BME280;18147;51.952;6.146;2023-05-06T02:08:15;101550.44;;;12.38;100.00
31538;BME280;18147;51.952;6.146;2023-05-06T02:10:41;101549.94;;;12.32;100.00
31538;BME280;18147;51.952;6.146;2023-05-06T02:13:09;101546.25;;;12.18;100.00
31538;BME280;18147;51.952;6.146;2023-05-06T02:15:37;101555.59;;;12.11;100.00
31538;BME280;18147;51.952;6.146;2023-05-06T02:18:07;101553.03;;;11.94;100.00
31538;BME280;18147;51.952;6.146;2023-05-06T02:20:37;101560.78;;;11.99;100.00
31538;BME280;18147;51.952;6.146;2023-05-06T02:23:03;101560.03;;;11.97;100.00
31538;BME280;18147;51.952;6.146;2023-05-06T02:25:28;101556.88;;;11.90;100.00
31538;BME280;18147;51.952;6.146;2023-05-06T02:27:54;101554.69;;;11.81;100.00
31538;BME280;18147;51.952;6.146;2023-05-06T02:30:20;101551.41;;;11.76;100.00
31538;BME280;18147;51.952;6.146;2023-05-06T02:32:45;101547.34;;;11.68;100.00
31538;BME280;18147;51.952;6.146;2023-05-06T02:35:11;101557.63;;;11.60;100.00
31538;BME280;18147;51.952;6.146;2023-05-06T02:37:42;101554.75;;;11.48;100.00
31538;BME280;18147;51.952;6.146;2023-05-06T02:40:08;101544.31;;;11.43;100.00
31538;BME280;18147;51.952;6.146;2023-05-06T02:42:37;101553.19;;;11.44;100.00
31538;BME280;18147;51.952;6.146;2023-05-06T02:45:04;101555.09;;;11.41;100.00
31538;BME280;18147;51.952;6.146;2023-05-06T02:47:31;101546.28;;;11.39;100.00
31538;BME280;18147;51.952;6.146;2023-05-06T02:49:59;101550.72;;;11.40;100.00
31538;BME280;18147;51.952;6.146;2023-05-06T02:52:24;101548.44;;;11.33;100.00
31538;BME280;18147;51.952;6.146;2023-05-06T02:54:51;101550.34;;;11.31;100.00
31538;BME280;18147;51.952;6.146;2023-05-06T02:57:17;101545.97;;;11.30;100.00
31538;BME280;18147;51.952;6.146;2023-05-06T02:59:45;101541.56;;;11.29;100.00
31538;BME280;18147;51.952;6.146;2023-05-06T03:02:11;101548.69;;;11.28;100.00
31538;BME280;18147;51.952;6.146;2023-05-06T03:04:37;101543.47;;;11.27;100.00
31538;BME280;18147;51.952;6.146;2023-05-06T03:07:03;101546.22;;;11.25;100.00
31538;BME280;18147;51.952;6.146;2023-05-06T03:09:28;101541.28;;;11.18;100.00
31538;BME280;18147;51.952;6.146;2023-05-06T03:11:55;101544.16;;;11.14;100.00
31538;BME280;18147;51.952;6.146;2023-05-06T03:14:21;101543.53;;;11.09;100.00
31538;BME280;18147;51.952;6.146;2023-05-06T03:16:48;101544.63;;;11.05;100.00
31538;BME280;18147;51.952;6.146;2023-05-06T03:19:17;101546.44;;;11.05;100.00
31538;BME280;18147;51.952;6.146;2023-05-06T03:21:43;101549.50;;;10.97;100.00
31538;BME280;18147;51.952;6.146;2023-05-06T03:24:09;101554.09;;;10.95;100.00
31538;BME280;18147;51.952;6.146;2023-05-06T03:26:36;101555.91;;;10.77;100.00
31538;BME280;18147;51.952;6.146;2023-05-06T03:29:02;101561.47;;;10.73;100.00
31538;BME280;18147;51.952;6.146;2023-05-06T03:31:28;101552.78;;;10.69;100.00
31538;BME280;18147;51.952;6.146;2023-05-06T03:33:55;101548.47;;;10.67;100.00
31538;BME280;18147;51.952;6.146;2023-05-06T03:36:23;101547.38;;;10.71;100.00
31538;BME280;18147;51.952;6.146;2023-05-06T03:38:51;101544.28;;;10.78;100.00
31538;BME280;18147;51.952;6.146;2023-05-06T03:41:18;101551.44;;;10.78;100.00
31538;BME280;18147;51.952;6.146;2023-05-06T03:43:44;101545.56;;;10.71;100.00
31538;BME280;18147;51.952;6.146;2023-05-06T03:46:11;101545.56;;;10.54;100.00
31538;BME280;18147;51.952;6.146;2023-05-06T03:48:41;101541.00;;;10.73;100.00
31538;BME280;18147;51.952;6.146;2023-05-06T03:51:10;101548.63;;;10.81;100.00
31538;BME280;18147;51.952;6.146;2023-05-06T03:53:39;101549.63;;;10.78;100.00
31538;BME280;18147;51.952;6.146;2023-05-06T03:56:05;101554.81;;;10.81;100.00
31538;BME280;18147;51.952;6.146;2023-05-06T03:58:34;101552.84;;;10.85;100.00
31538;BME280;18147;51.952;6.146;2023-05-06T04:01:02;101551.44;;;10.78;100.00
31538;BME280;18147;51.952;6.146;2023-05-06T04:03:29;101545.94;;;10.81;100.00
31538;BME280;18147;51.952;6.146;2023-05-06T04:05:55;101558.09;;;10.86;100.00
31538;BME280;18147;51.952;6.146;2023-05-06T04:08:25;101549.13;;;10.87;100.00
31538;BME280;18147;51.952;6.146;2023-05-06T04:10:54;101549.38;;;10.83;100.00
31538;BME280;18147;51.952;6.146;2023-05-06T04:13:29;101545.16;;;10.79;100.00
31538;BME280;18147;51.952;6.146;2023-05-06T04:15:57;101544.22;;;10.80;100.00
31538;BME280;18147;51.952;6.146;2023-05-06T04:18:27;101549.72;;;10.77;100.00
31538;BME280;18147;51.952;6.146;2023-05-06T04:20:59;101558.50;;;10.79;100.00
31538;BME280;18147;51.952;6.146;2023-05-06T04:23:29;101554.72;;;10.83;100.00
31538;BME280;18147;51.952;6.146;2023-05-06T04:25:56;101558.28;;;10.99;100.00
31538;BME280;18147;51.952;6.146;2023-05-06T04:28:23;101562.53;;;11.03;100.00
31538;BME280;18147;51.952;6.146;2023-05-06T04:30:50;101560.56;;;11.07;100.00
31538;BME280;18147;51.952;6.146;2023-05-06T04:33:18;101559.94;;;11.02;100.00
31538;BME280;18147;51.952;6.146;2023-05-06T04:35:51;101560.94;;;10.99;100.00
31538;BME280;18147;51.952;6.146;2023-05-06T04:38:25;101568.66;;;11.05;100.00
31538;BME280;18147;51.952;6.146;2023-05-06T04:40:55;101559.72;;;11.22;100.00
31538;BME280;18147;51.952;6.146;2023-05-06T04:43:25;101562.66;;;11.33;100.00
31538;BME280;18147;51.952;6.146;2023-05-06T04:45:59;101549.66;;;11.43;100.00
31538;BME280;18147;51.952;6.146;2023-05-06T04:48:28;101565.97;;;11.70;100.00
31538;BME280;18147;51.952;6.146;2023-05-06T04:50:57;101557.97;;;11.86;100.00
31538;BME280;18147;51.952;6.146;2023-05-06T04:53:29;101566.13;;;11.99;100.00
31538;BME280;18147;51.952;6.146;2023-05-06T04:55:54;101567.00;;;12.15;100.00
31538;BME280;18147;51.952;6.146;2023-05-06T04:58:21;101568.47;;;12.35;100.00
31538;BME280;18147;51.952;6.146;2023-05-06T05:00:47;101573.06;;;12.33;100.00
31538;BME280;18147;51.952;6.146;2023-05-06T05:03:13;101569.69;;;12.45;100.00
31538;BME280;18147;51.952;6.146;2023-05-06T05:05:39;101572.59;;;12.70;100.00
31538;BME280;18147;51.952;6.146;2023-05-06T05:08:12;101571.28;;;13.06;100.00
31538;BME280;18147;51.952;6.146;2023-05-06T05:10:42;101568.78;;;13.60;100.00
31538;BME280;18147;51.952;6.146;2023-05-06T05:13:12;101568.59;;;13.90;100.00
31538;BME280;18147;51.952;6.146;2023-05-06T05:15:38;101562.16;;;14.20;100.00
31538;BME280;18147;51.952;6.146;2023-05-06T05:18:07;101575.50;;;14.61;100.00
31538;BME280;18147;51.952;6.146;2023-05-06T05:20:34;101577.78;;;15.18;100.00
31538;BME280;18147;51.952;6.146;2023-05-06T05:23:03;101573.53;;;15.52;100.00
31538;BME280;18147;51.952;6.146;2023-05-06T05:25:29;101572.66;;;16.01;100.00
31538;BME280;18147;51.952;6.146;2023-05-06T05:27:55;101579.44;;;16.42;100.00
31538;BME280;18147;51.952;6.146;2023-05-06T05:30:28;101580.00;;;16.11;100.00
31538;BME280;18147;51.952;6.146;2023-05-06T05:32:54;101578.19;;;16.11;100.00
31538;BME280;18147;51.952;6.146;2023-05-06T05:35:25;101579.06;;;16.12;100.00
31538;BME280;18147;51.952;6.146;2023-05-06T05:37:52;101571.84;;;16.12;100.00
31538;BME280;18147;51.952;6.146;2023-05-06T05:40:18;101573.19;;;16.42;100.00
31538;BME280;18147;51.952;6.146;2023-05-06T05:42:47;101575.81;;;16.66;100.00
31538;BME280;18147;51.952;6.146;2023-05-06T05:45:21;101583.63;;;16.93;100.00
31538;BME280;18147;51.952;6.146;2023-05-06T05:47:49;101576.63;;;16.90;100.00
31538;BME280;18147;51.952;6.146;2023-05-06T05:50:15;101572.63;;;17.29;100.00
31538;BME280;18147;51.952;6.146;2023-05-06T05:52:42;101569.56;;;17.45;100.00
31538;BME280;18147;51.952;6.146;2023-05-06T05:55:08;101580.44;;;17.89;100.00
31538;BME280;18147;51.952;6.146;2023-05-06T05:57:36;101574.84;;;18.13;99.54
31538;BME280;18147;51.952;6.146;2023-05-06T06:00:03;101579.44;;;17.90;97.69
31538;BME280;18147;51.952;6.146;2023-05-06T06:02:31;101576.97;;;18.30;99.96
31538;BME280;18147;51.952;6.146;2023-05-06T06:04:58;101573.59;;;18.17;99.13
31538;BME280;18147;51.952;6.146;2023-05-06T06:07:24;101571.59;;;18.51;99.94
31538;BME280;18147;51.952;6.146;2023-05-06T06:09:50;101581.03;;;18.56;99.00
31538;BME280;18147;51.952;6.146;2023-05-06T06:12:16;101578.63;;;18.42;99.26
31538;BME280;18147;51.952;6.146;2023-05-06T06:14:44;101572.94;;;18.77;97.95
31538;BME280;18147;51.952;6.146;2023-05-06T06:17:15;101572.44;;;18.83;99.38
31538;BME280;18147;51.952;6.146;2023-05-06T06:19:45;101574.97;;;19.06;98.07
31538;BME280;18147;51.952;6.146;2023-05-06T06:22:11;101574.66;;;19.30;97.22
31538;BME280;18147;51.952;6.146;2023-05-06T06:24:37;101575.31;;;18.92;95.54
31538;BME280;18147;51.952;6.146;2023-05-06T06:27:03;101573.03;;;19.48;93.83
31538;BME280;18147;51.952;6.146;2023-05-06T06:29:28;101574.84;;;19.69;95.34
31538;BME280;18147;51.952;6.146;2023-05-06T06:31:54;101574.78;;;19.59;91.42
31538;BME280;18147;51.952;6.146;2023-05-06T06:34:27;101573.41;;;19.64;91.12
31538;BME280;18147;51.952;6.146;2023-05-06T06:36:53;101582.88;;;19.99;89.96
31538;BME280;18147;51.952;6.146;2023-05-06T06:39:19;101579.31;;;19.99;94.29
31538;BME280;18147;51.952;6.146;2023-05-06T06:41:45;101575.63;;;20.19;89.52
31538;BME280;18147;51.952;6.146;2023-05-06T06:44:10;101581.34;;;20.64;87.13
31538;BME280;18147;51.952;6.146;2023-05-06T06:46:36;101583.63;;;20.69;89.07
31538;BME280;18147;51.952;6.146;2023-05-06T06:49:01;101585.31;;;20.80;83.32
31538;BME280;18147;51.952;6.146;2023-05-06T06:51:27;101580.09;;;20.49;83.94
31538;BME280;18147;51.952;6.146;2023-05-06T06:53:53;101592.47;;;20.52;85.63
31538;BME280;18147;51.952;6.146;2023-05-06T06:56:19;101584.66;;;20.58;85.51
31538;BME280;18147;51.952;6.146;2023-05-06T06:58:44;101589.19;;;20.19;87.06
31538;BME280;18147;51.952;6.146;2023-05-06T07:01:10;101584.63;;;20.29;87.67
31538;BME280;18147;51.952;6.146;2023-05-06T07:03:36;101587.34;;;19.60;87.62
31538;BME280;18147;51.952;6.146;2023-05-06T07:06:01;101593.41;;;20.02;90.38
31538;BME280;18147;51.952;6.146;2023-05-06T07:08:27;101593.00;;;20.07;87.41
31538;BME280;18147;51.952;6.146;2023-05-06T07:10:53;101594.22;;;19.74;86.50
31538;BME280;18147;51.952;6.146;2023-05-06T07:13:19;101585.19;;;20.13;87.59
31538;BME280;18147;51.952;6.146;2023-05-06T07:15:47;101585.31;;;20.12;86.22
31538;BME280;18147;51.952;6.146;2023-05-06T07:18:13;101592.69;;;19.90;86.49
31538;BME280;18147;51.952;6.146;2023-05-06T07:20:39;101589.88;;;20.11;87.34
31538;BME280;18147;51.952;6.146;2023-05-06T07:23:05;101590.50;;;20.54;87.24
31538;BME280;18147;51.952;6.146;2023-05-06T07:25:33;101595.03;;;20.53;84.98
31538;BME280;18147;51.952;6.146;2023-05-06T07:27:59;101596.72;;;20.15;83.79
31538;BME280;18147;51.952;6.146;2023-05-06T07:30:25;101598.69;;;19.94;88.70
31538;BME280;18147;51.952;6.146;2023-05-06T07:32:51;101592.72;;;20.10;88.79
31538;BME280;18147;51.952;6.146;2023-05-06T07:35:17;101596.88;;;20.33;87.60
31538;BME280;18147;51.952;6.146;2023-05-06T07:37:46;101595.03;;;20.43;85.55
31538;BME280;18147;51.952;6.146;2023-05-06T07:40:12;101598.03;;;20.79;86.45
31538;BME280;18147;51.952;6.146;2023-05-06T07:42:39;101594.75;;;20.56;85.19
31538;BME280;18147;51.952;6.146;2023-05-06T07:45:05;101603.59;;;20.39;87.50
31538;BME280;18147;51.952;6.146;2023-05-06T07:47:32;101591.78;;;20.50;88.04
31538;BME280;18147;51.952;6.146;2023-05-06T07:49:58;101592.41;;;20.13;89.90
31538;BME280;18147;51.952;6.146;2023-05-06T07:52:24;101588.19;;;20.39;87.85
31538;BME280;18147;51.952;6.146;2023-05-06T07:54:52;101596.19;;;19.72;91.27
31538;BME280;18147;51.952;6.146;2023-05-06T07:57:22;101598.69;;;19.54;90.73
31538;BME280;18147;51.952;6.146;2023-05-06T07:59:49;101607.00;;;19.62;91.79
31538;BME280;18147;51.952;6.146;2023-05-06T08:02:15;101605.94;;;19.84;90.39
31538;BME280;18147;51.952;6.146;2023-05-06T08:04:41;101605.97;;;20.23;89.13
31538;BME280;18147;51.952;6.146;2023-05-06T08:07:09;101615.97;;;21.00;87.21
31538;BME280;18147;51.952;6.146;2023-05-06T08:09:34;101609.56;;;21.28;82.28
31538;BME280;18147;51.952;6.146;2023-05-06T08:12:03;101615.22;;;21.64;80.75
31538;BME280;18147;51.952;6.146;2023-05-06T08:14:30;101607.44;;;21.96;78.92
31538;BME280;18147;51.952;6.146;2023-05-06T08:16:59;101605.41;;;21.98;76.94
31538;BME280;18147;51.952;6.146;2023-05-06T08:19:24;101614.34;;;21.91;77.60
31538;BME280;18147;51.952;6.146;2023-05-06T08:21:54;101611.19;;;22.13;77.24
31538;BME280;18147;51.952;6.146;2023-05-06T08:24:19;101623.75;;;21.12;80.44
31538;BME280;18147;51.952;6.146;2023-05-06T08:26:45;101626.91;;;21.64;78.50
31538;BME280;18147;51.952;6.146;2023-05-06T08:29:11;101615.19;;;21.91;79.01
31538;BME280;18147;51.952;6.146;2023-05-06T08:31:37;101624.06;;;21.19;79.33
31538;BME280;18147;51.952;6.146;2023-05-06T08:34:06;101623.78;;;21.03;80.18
31538;BME280;18147;51.952;6.146;2023-05-06T08:36:31;101617.69;;;20.91;84.06
31538;BME280;18147;51.952;6.146;2023-05-06T08:38:57;101619.81;;;20.87;81.56
31538;BME280;18147;51.952;6.146;2023-05-06T08:41:27;101628.84;;;20.68;84.33
31538;BME280;18147;51.952;6.146;2023-05-06T08:43:53;101628.53;;;21.48;82.72
31538;BME280;18147;51.952;6.146;2023-05-06T08:46:24;101620.31;;;20.54;86.69
31538;BME280;18147;51.952;6.146;2023-05-06T08:48:51;101622.81;;;21.04;83.57
31538;BME280;18147;51.952;6.146;2023-05-06T08:51:19;101614.72;;;21.68;77.20
31538;BME280;18147;51.952;6.146;2023-05-06T08:53:50;101606.94;;;21.56;81.87
31538;BME280;18147;51.952;6.146;2023-05-06T08:56:17;101616.06;;;21.08;84.55
31538;BME280;18147;51.952;6.146;2023-05-06T08:58:44;101611.59;;;21.36;78.04
31538;BME280;18147;51.952;6.146;2023-05-06T09:01:13;101624.69;;;20.84;79.19
31538;BME280;18147;51.952;6.146;2023-05-06T09:03:42;101611.28;;;20.34;88.72
31538;BME280;18147;51.952;6.146;2023-05-06T09:06:09;101618.25;;;21.51;83.41
31538;BME280;18147;51.952;6.146;2023-05-06T09:08:35;101607.66;;;22.03;80.73
31538;BME280;18147;51.952;6.146;2023-05-06T09:11:01;101603.28;;;22.38;78.50
31538;BME280;18147;51.952;6.146;2023-05-06T09:13:26;101611.56;;;22.01;76.03
31538;BME280;18147;51.952;6.146;2023-05-06T09:15:53;101603.59;;;22.53;74.00
31538;BME280;18147;51.952;6.146;2023-05-06T09:18:19;101612.16;;;21.67;78.16
31538;BME280;18147;51.952;6.146;2023-05-06T09:20:47;101609.03;;;22.17;78.55
31538;BME280;18147;51.952;6.146;2023-05-06T09:23:15;101603.47;;;22.54;73.84
31538;BME280;18147;51.952;6.146;2023-05-06T09:25:42;101600.91;;;22.07;74.65
31538;BME280;18147;51.952;6.146;2023-05-06T09:28:10;101593.69;;;21.80;72.61
31538;BME280;18147;51.952;6.146;2023-05-06T09:30:41;101595.34;;;22.62;71.91
31538;BME280;18147;51.952;6.146;2023-05-06T09:33:07;101592.38;;;21.57;74.07
31538;BME280;18147;51.952;6.146;2023-05-06T09:35:41;101579.47;;;22.49;74.73
31538;BME280;18147;51.952;6.146;2023-05-06T09:38:08;101588.47;;;22.32;72.04
31538;BME280;18147;51.952;6.146;2023-05-06T09:40:37;101584.06;;;22.04;76.71
31538;BME280;18147;51.952;6.146;2023-05-06T09:43:03;101585.38;;;22.27;73.92
31538;BME280;18147;51.952;6.146;2023-05-06T09:45:29;101574.34;;;22.11;71.17
31538;BME280;18147;51.952;6.146;2023-05-06T09:47:56;101575.47;;;21.90;70.54
31538;BME280;18147;51.952;6.146;2023-05-06T09:50:26;101576.38;;;22.27;73.46
31538;BME280;18147;51.952;6.146;2023-05-06T09:52:56;101577.59;;;22.50;69.85
31538;BME280;18147;51.952;6.146;2023-05-06T09:55:24;101570.25;;;22.25;68.01
31538;BME280;18147;51.952;6.146;2023-05-06T09:57:57;101573.50;;;22.72;66.70
31538;BME280;18147;51.952;6.146;2023-05-06T10:00:23;101565.47;;;23.14;64.89
31538;BME280;18147;51.952;6.146;2023-05-06T10:02:53;101565.25;;;22.99;67.45
31538;BME280;18147;51.952;6.146;2023-05-06T10:05:20;101558.69;;;22.66;65.41
31538;BME280;18147;51.952;6.146;2023-05-06T10:07:47;101563.38;;;22.56;64.34
31538;BME280;18147;51.952;6.146;2023-05-06T10:10:17;101564.22;;;22.39;64.81
31538;BME280;18147;51.952;6.146;2023-05-06T10:12:43;101568.06;;;21.83;67.13
31538;BME280;18147;51.952;6.146;2023-05-06T10:15:09;101569.06;;;22.27;68.76
31538;BME280;18147;51.952;6.146;2023-05-06T10:17:38;101572.00;;;23.21;67.35
31538;BME280;18147;51.952;6.146;2023-05-06T10:20:07;101572.06;;;22.60;63.95
31538;BME280;18147;51.952;6.146;2023-05-06T10:25:29;101563.59;;;23.07;62.13
31538;BME280;18147;51.952;6.146;2023-05-06T10:27:58;101562.78;;;21.81;64.21
31538;BME280;18147;51.952;6.146;2023-05-06T10:30:26;101568.66;;;22.04;65.36
31538;BME280;18147;51.952;6.146;2023-05-06T10:32:58;101559.72;;;23.17;62.74
31538;BME280;18147;51.952;6.146;2023-05-06T10:38:14;101553.47;;;22.91;60.93
31538;BME280;18147;51.952;6.146;2023-05-06T10:40:42;101558.66;;;22.40;62.23
31538;BME280;18147;51.952;6.146;2023-05-06T10:46:06;101544.19;;;22.84;60.83
31538;BME280;18147;51.952;6.146;2023-05-06T10:48:35;101553.16;;;22.14;62.59
31538;BME280;18147;51.952;6.146;2023-05-06T10:51:21;101550.69;;;22.65;63.14
31538;BME280;18147;51.952;6.146;2023-05-06T10:56:38;101540.00;;;23.15;61.30
31538;BME280;18147;51.952;6.146;2023-05-06T10:59:06;101543.72;;;23.14;61.52
31538;BME280;18147;51.952;6.146;2023-05-06T11:01:34;101539.88;;;22.73;60.75
31538;BME280;18147;51.952;6.146;2023-05-06T11:04:10;101538.25;;;23.91;59.01
31538;BME280;18147;51.952;6.146;2023-05-06T11:06:43;101525.34;;;24.17;57.81
31538;BME280;18147;51.952;6.146;2023-05-06T11:09:22;101527.94;;;24.51;59.03
31538;BME280;18147;51.952;6.146;2023-05-06T11:12:03;101528.78;;;23.61;54.91
31538;BME280;18147;51.952;6.146;2023-05-06T11:14:37;101532.72;;;22.90;60.59
31538;BME280;18147;51.952;6.146;2023-05-06T11:17:28;101525.16;;;23.52;57.68
31538;BME280;18147;51.952;6.146;2023-05-06T11:20:20;101531.28;;;23.54;54.83
31538;BME280;18147;51.952;6.146;2023-05-06T11:22:46;101528.19;;;23.83;56.64
31538;BME280;18147;51.952;6.146;2023-05-06T11:25:12;101527.72;;;24.20;54.70
31538;BME280;18147;51.952;6.146;2023-05-06T11:27:37;101528.41;;;24.71;55.68
31538;BME280;18147;51.952;6.146;2023-05-06T11:30:12;101533.38;;;24.51;53.93
31538;BME280;18147;51.952;6.146;2023-05-06T11:32:41;101524.81;;;24.14;55.68
31538;BME280;18147;51.952;6.146;2023-05-06T11:35:07;101524.44;;;23.76;56.29
31538;BME280;18147;51.952;6.146;2023-05-06T11:37:33;101523.47;;;23.51;58.71
31538;BME280;18147;51.952;6.146;2023-05-06T11:40:00;101529.59;;;23.53;57.47
31538;BME280;18147;51.952;6.146;2023-05-06T11:42:29;101524.94;;;23.03;57.39
31538;BME280;18147;51.952;6.146;2023-05-06T11:45:00;101525.69;;;22.87;57.85
31538;BME280;18147;51.952;6.146;2023-05-06T11:47:26;101526.03;;;22.84;57.25
31538;BME280;18147;51.952;6.146;2023-05-06T11:49:54;101517.44;;;23.39;57.04
31538;BME280;18147;51.952;6.146;2023-05-06T11:52:24;101515.41;;;23.84;57.75
31538;BME280;18147;51.952;6.146;2023-05-06T11:54:51;101529.53;;;22.77;55.99
31538;BME280;18147;51.952;6.146;2023-05-06T11:57:19;101520.88;;;23.41;56.13
31538;BME280;18147;51.952;6.146;2023-05-06T11:59:52;101522.13;;;24.30;55.20
31538;BME280;18147;51.952;6.146;2023-05-06T12:02:18;101515.66;;;24.47;55.09
31538;BME280;18147;51.952;6.146;2023-05-06T12:04:47;101512.88;;;23.90;53.41
31538;BME280;18147;51.952;6.146;2023-05-06T12:07:16;101514.38;;;23.76;53.23
31538;BME280;18147;51.952;6.146;2023-05-06T12:09:47;101515.25;;;23.85;55.10
31538;BME280;18147;51.952;6.146;2023-05-06T12:12:19;101518.47;;;23.30;54.79
31538;BME280;18147;51.952;6.146;2023-05-06T12:14:47;101511.75;;;23.59;53.61
31538;BME280;18147;51.952;6.146;2023-05-06T12:17:17;101505.91;;;24.04;55.41
31538;BME280;18147;51.952;6.146;2023-05-06T12:19:45;101516.13;;;23.43;54.59
31538;BME280;18147;51.952;6.146;2023-05-06T12:22:18;101510.09;;;23.66;55.75
31538;BME280;18147;51.952;6.146;2023-05-06T12:24:46;101502.34;;;23.45;54.40
31538;BME280;18147;51.952;6.146;2023-05-06T12:27:12;101511.72;;;23.08;55.59
31538;BME280;18147;51.952;6.146;2023-05-06T12:29:38;101507.25;;;23.75;56.42
31538;BME280;18147;51.952;6.146;2023-05-06T12:32:10;101506.09;;;24.11;55.12
31538;BME280;18147;51.952;6.146;2023-05-06T12:34:37;101502.00;;;24.15;53.67
31538;BME280;18147;51.952;6.146;2023-05-06T12:37:07;101501.78;;;23.75;53.71
31538;BME280;18147;51.952;6.146;2023-05-06T12:39:37;101505.03;;;24.03;52.43
31538;BME280;18147;51.952;6.146;2023-05-06T12:42:04;101505.75;;;24.38;52.32
31538;BME280;18147;51.952;6.146;2023-05-06T12:44:40;101502.50;;;24.26;53.45
31538;BME280;18147;51.952;6.146;2023-05-06T12:47:08;101497.66;;;23.63;57.18
31538;BME280;18147;51.952;6.146;2023-05-06T12:49:56;101502.41;;;23.61;55.59
31538;BME280;18147;51.952;6.146;2023-05-06T12:52:27;101504.66;;;23.74;54.86
31538;BME280;18147;51.952;6.146;2023-05-06T12:54:54;101516.13;;;23.09;53.42
31538;BME280;18147;51.952;6.146;2023-05-06T12:57:20;101499.31;;;23.56;53.04
31538;BME280;18147;51.952;6.146;2023-05-06T12:59:48;101498.25;;;23.41;55.43
31538;BME280;18147;51.952;6.146;2023-05-06T13:02:17;101499.91;;;22.73;53.76
31538;BME280;18147;51.952;6.146;2023-05-06T13:04:42;101501.78;;;22.91;55.16
31538;BME280;18147;51.952;6.146;2023-05-06T13:07:12;101492.38;;;22.85;54.92